Nearby METAR Reports

 

KAVP - Avoca/Wilkes B., Pennsylvania, USA
Distance from station: N 16mi, 25km
Updated: 01/22/2020 2:54am
Clear
Clear
 Wind from calm
Wind: Calm
Temperature: 12°F , -11°C
Dew Point: 9°F , -13°C
Humidity: 85%
Barometer: 30.38 inHg , 1028.8 hPa
Clouds: Clear
Visibility: 10 miles , 16 km
2020/01/22 07:54 KAVP 220754Z 00000KT 10SM CLR M11/M13 A3038 RMK AO2 SLP301 I1000 T11061133
KMPO - Mt. Pocono, Pennsylvania, USA
Distance from station: E 20mi, 33km
Updated: 01/22/2020 2:53am
Clear
Clear
 Wind from WNW
Wind: WNW 7 mph , 11 km/h
Temperature: 16°F , -9°C
Wind Chill: 6°F , -14°C
Dew Point: 10°F , -12°C
Humidity: 79%
Barometer: 30.29 inHg , 1025.7 hPa
Clouds: Clear
Visibility: 10 miles , 16 km
2020/01/22 07:53 KMPO 220753Z AUTO 29006KT 10SM CLR M09/M12 A3029 RMK AO2 SLP290 T10891117
 
KABE - Allentown, Pennsylvania, USA
Distance from station: SSE 36mi, 58km
Updated: 01/22/2020 2:51am
Clear
Clear
 Wind from W
Wind: W 5 mph , 7 km/h
Temperature: 18°F , -8°C
Wind Chill: 11°F , -12°C
Dew Point: 10°F , -12°C
Humidity: 73%
Barometer: 30.41 inHg , 1029.8 hPa
Clouds: Clear
Visibility: 10 miles , 16 km
2020/01/22 07:51 KABE 220751Z 26004KT 10SM CLR M08/M12 A3041 RMK AO2 SLP305 T10831122
KXLL - Allentown Queen, Pennsylvania, USA
Distance from station: SSE 41mi, 65km
Updated: 01/22/2020 2:55am
Clear
Clear
 Wind from calm
Wind: Calm
Temperature: 21°F , -6°C
Dew Point: 16°F , -9°C
Humidity: 80%
Barometer: 30.43 inHg , 1030.5 hPa
Clouds: Clear
Visibility: 10 miles , 16 km
2020/01/22 07:55 KXLL 220755Z AUTO 00000KT 10SM CLR M06/M09 A3043 RMK AO2